<?xml version="1.0" encoding="UTF-8" standalone="no" ?>
<gpx xmlns="http://www.topografix.com/GPX/1/1" xmlns:xsi="http://www.w3.org/2001/XMLSchema-instance" xsi:schemaLocation="http://www.topografix.com/GPX/1/1 http://www.topografix.com/GPX/1/1/gpx.xsd" version="1.1" creator="VisuGPX - https://www.visugpx.com">
  <metadata>
    <name>st germain luc ouistreham</name>
  </metadata>
  <trk>
    <name><![CDATA[14676268-02-05-22]]></name>
    <trkseg>
      <trkpt lat="49.19886" lon="-0.4096">
        <ele>67</ele>
        <time>2022-06-08T17:14:13Z</time>
      </trkpt>
      <trkpt lat="49.19898" lon="-0.40933">
        <ele>66</ele>
        <time>2022-06-08T17:14:17Z</time>
      </trkpt>
      <trkpt lat="49.19909" lon="-0.40876">
        <ele>66</ele>
        <time>2022-06-08T17:14:24Z</time>
      </trkpt>
      <trkpt lat="49.19927" lon="-0.40839">
        <ele>66</ele>
        <time>2022-06-08T17:14:29Z</time>
      </trkpt>
      <trkpt lat="49.19972" lon="-0.40827">
        <ele>67</ele>
        <time>2022-06-08T17:14:37Z</time>
      </trkpt>
      <trkpt lat="49.2002" lon="-0.40782">
        <ele>67</ele>
        <time>2022-06-08T17:14:47Z</time>
      </trkpt>
      <trkpt lat="49.20096" lon="-0.40696">
        <ele>66</ele>
        <time>2022-06-08T17:15:04Z</time>
      </trkpt>
      <trkpt lat="49.20142" lon="-0.40574">
        <ele>67</ele>
        <time>2022-06-08T17:15:20Z</time>
      </trkpt>
      <trkpt lat="49.20204" lon="-0.40527">
        <ele>66</ele>
        <time>2022-06-08T17:15:33Z</time>
      </trkpt>
      <trkpt lat="49.20188" lon="-0.40428">
        <ele>66</ele>
        <time>2022-06-08T17:15:45Z</time>
      </trkpt>
      <trkpt lat="49.20162" lon="-0.40317">
        <ele>65</ele>
        <time>2022-06-08T17:15:58Z</time>
      </trkpt>
      <trkpt lat="49.20156" lon="-0.4015">
        <ele>65</ele>
        <time>2022-06-08T17:16:18Z</time>
      </trkpt>
      <trkpt lat="49.2016" lon="-0.39978">
        <ele>65</ele>
        <time>2022-06-08T17:16:38Z</time>
      </trkpt>
      <trkpt lat="49.20153" lon="-0.39805">
        <ele>64</ele>
        <time>2022-06-08T17:16:58Z</time>
      </trkpt>
      <trkpt lat="49.20119" lon="-0.39648">
        <ele>65</ele>
        <time>2022-06-08T17:17:17Z</time>
      </trkpt>
      <trkpt lat="49.20099" lon="-0.39594">
        <ele>64</ele>
        <time>2022-06-08T17:17:24Z</time>
      </trkpt>
      <trkpt lat="49.20026" lon="-0.39408">
        <ele>64</ele>
        <time>2022-06-08T17:17:50Z</time>
      </trkpt>
      <trkpt lat="49.19953" lon="-0.39208">
        <ele>66</ele>
        <time>2022-06-08T17:18:16Z</time>
      </trkpt>
      <trkpt lat="49.19881" lon="-0.39009">
        <ele>61</ele>
        <time>2022-06-08T17:18:43Z</time>
      </trkpt>
      <trkpt lat="49.19806" lon="-0.38852">
        <ele>55</ele>
        <time>2022-06-08T17:19:05Z</time>
      </trkpt>
      <trkpt lat="49.19719" lon="-0.38746">
        <ele>54</ele>
        <time>2022-06-08T17:19:25Z</time>
      </trkpt>
      <trkpt lat="49.1963" lon="-0.38667">
        <ele>54</ele>
        <time>2022-06-08T17:19:43Z</time>
      </trkpt>
      <trkpt lat="49.19545" lon="-0.38609">
        <ele>52</ele>
        <time>2022-06-08T17:20:00Z</time>
      </trkpt>
      <trkpt lat="49.19463" lon="-0.38547">
        <ele>54</ele>
        <time>2022-06-08T17:20:16Z</time>
      </trkpt>
      <trkpt lat="49.19397" lon="-0.38446">
        <ele>55</ele>
        <time>2022-06-08T17:20:33Z</time>
      </trkpt>
      <trkpt lat="49.19306" lon="-0.38337">
        <ele>55</ele>
        <time>2022-06-08T17:20:53Z</time>
      </trkpt>
      <trkpt lat="49.19176" lon="-0.38205">
        <ele>52</ele>
        <time>2022-06-08T17:21:21Z</time>
      </trkpt>
      <trkpt lat="49.1903" lon="-0.38031">
        <ele>44</ele>
        <time>2022-06-08T17:21:54Z</time>
      </trkpt>
      <trkpt lat="49.18879" lon="-0.37871">
        <ele>40</ele>
        <time>2022-06-08T17:22:27Z</time>
      </trkpt>
      <trkpt lat="49.18834" lon="-0.37836">
        <ele>38</ele>
        <time>2022-06-08T17:22:36Z</time>
      </trkpt>
      <trkpt lat="49.18804" lon="-0.3784">
        <ele>37</ele>
        <time>2022-06-08T17:22:41Z</time>
      </trkpt>
      <trkpt lat="49.18796" lon="-0.37791">
        <ele>38</ele>
        <time>2022-06-08T17:22:47Z</time>
      </trkpt>
      <trkpt lat="49.18734" lon="-0.37725">
        <ele>37</ele>
        <time>2022-06-08T17:23:00Z</time>
      </trkpt>
      <trkpt lat="49.18625" lon="-0.37589">
        <ele>35</ele>
        <time>2022-06-08T17:23:25Z</time>
      </trkpt>
      <trkpt lat="49.1854" lon="-0.3748">
        <ele>34</ele>
        <time>2022-06-08T17:23:45Z</time>
      </trkpt>
      <trkpt lat="49.18489" lon="-0.37424">
        <ele>31</ele>
        <time>2022-06-08T17:23:56Z</time>
      </trkpt>
      <trkpt lat="49.18488" lon="-0.37367">
        <ele>31</ele>
        <time>2022-06-08T17:24:03Z</time>
      </trkpt>
      <trkpt lat="49.18544" lon="-0.37172">
        <ele>29</ele>
        <time>2022-06-08T17:24:28Z</time>
      </trkpt>
      <trkpt lat="49.18429" lon="-0.36989">
        <ele>22</ele>
        <time>2022-06-08T17:24:57Z</time>
      </trkpt>
      <trkpt lat="49.18328" lon="-0.36858">
        <ele>18</ele>
        <time>2022-06-08T17:25:21Z</time>
      </trkpt>
      <trkpt lat="49.18304" lon="-0.36826">
        <ele>17</ele>
        <time>2022-06-08T17:25:26Z</time>
      </trkpt>
      <trkpt lat="49.18344" lon="-0.36703">
        <ele>18</ele>
        <time>2022-06-08T17:25:42Z</time>
      </trkpt>
      <trkpt lat="49.18245" lon="-0.36583">
        <ele>12</ele>
        <time>2022-06-08T17:26:05Z</time>
      </trkpt>
      <trkpt lat="49.18141" lon="-0.3646">
        <ele>11</ele>
        <time>2022-06-08T17:26:28Z</time>
      </trkpt>
      <trkpt lat="49.18084" lon="-0.36409">
        <ele>7</ele>
        <time>2022-06-08T17:26:40Z</time>
      </trkpt>
      <trkpt lat="49.18019" lon="-0.3636">
        <ele>8</ele>
        <time>2022-06-08T17:26:53Z</time>
      </trkpt>
      <trkpt lat="49.18082" lon="-0.36232">
        <ele>12</ele>
        <time>2022-06-08T17:27:12Z</time>
      </trkpt>
      <trkpt lat="49.18144" lon="-0.36119">
        <ele>12</ele>
        <time>2022-06-08T17:27:29Z</time>
      </trkpt>
      <trkpt lat="49.1802" lon="-0.35984">
        <ele>10</ele>
        <time>2022-06-08T17:27:56Z</time>
      </trkpt>
      <trkpt lat="49.17967" lon="-0.35934">
        <ele>10</ele>
        <time>2022-06-08T17:28:07Z</time>
      </trkpt>
      <trkpt lat="49.1788" lon="-0.36126">
        <ele>11</ele>
        <time>2022-06-08T17:28:34Z</time>
      </trkpt>
      <trkpt lat="49.17858" lon="-0.36145">
        <ele>11</ele>
        <time>2022-06-08T17:28:39Z</time>
      </trkpt>
      <trkpt lat="49.17842" lon="-0.36161">
        <ele>11</ele>
        <time>2022-06-08T17:28:42Z</time>
      </trkpt>
      <trkpt lat="49.17717" lon="-0.35953">
        <ele>9</ele>
        <time>2022-06-08T17:29:15Z</time>
      </trkpt>
      <trkpt lat="49.17618" lon="-0.35774">
        <ele>10</ele>
        <time>2022-06-08T17:29:42Z</time>
      </trkpt>
      <trkpt lat="49.17686" lon="-0.35615">
        <ele>10</ele>
        <time>2022-06-08T17:30:04Z</time>
      </trkpt>
      <trkpt lat="49.17749" lon="-0.35487">
        <ele>9</ele>
        <time>2022-06-08T17:30:23Z</time>
      </trkpt>
      <trkpt lat="49.17811" lon="-0.35348">
        <ele>9</ele>
        <time>2022-06-08T17:30:42Z</time>
      </trkpt>
      <trkpt lat="49.17867" lon="-0.35208">
        <ele>8</ele>
        <time>2022-06-08T17:31:01Z</time>
      </trkpt>
      <trkpt lat="49.17928" lon="-0.35089">
        <ele>8</ele>
        <time>2022-06-08T17:31:19Z</time>
      </trkpt>
      <trkpt lat="49.17975" lon="-0.34976">
        <ele>6</ele>
        <time>2022-06-08T17:31:35Z</time>
      </trkpt>
      <trkpt lat="49.18027" lon="-0.34973">
        <ele>5</ele>
        <time>2022-06-08T17:31:44Z</time>
      </trkpt>
      <trkpt lat="49.18109" lon="-0.34907">
        <ele>4</ele>
        <time>2022-06-08T17:32:00Z</time>
      </trkpt>
      <trkpt lat="49.18166" lon="-0.35035">
        <ele>4</ele>
        <time>2022-06-08T17:32:18Z</time>
      </trkpt>
      <trkpt lat="49.18283" lon="-0.3519">
        <ele>5</ele>
        <time>2022-06-08T17:32:46Z</time>
      </trkpt>
      <trkpt lat="49.18317" lon="-0.35262">
        <ele>6</ele>
        <time>2022-06-08T17:32:56Z</time>
      </trkpt>
      <trkpt lat="49.18393" lon="-0.35169">
        <ele>7</ele>
        <time>2022-06-08T17:33:14Z</time>
      </trkpt>
      <trkpt lat="49.18436" lon="-0.35037">
        <ele>7</ele>
        <time>2022-06-08T17:33:31Z</time>
      </trkpt>
      <trkpt lat="49.1845" lon="-0.34832">
        <ele>9</ele>
        <time>2022-06-08T17:33:55Z</time>
      </trkpt>
      <trkpt lat="49.1845" lon="-0.34501">
        <ele>8</ele>
        <time>2022-06-08T17:34:33Z</time>
      </trkpt>
      <trkpt lat="49.18444" lon="-0.34174">
        <ele>2</ele>
        <time>2022-06-08T17:35:11Z</time>
      </trkpt>
      <trkpt lat="49.18452" lon="-0.33893">
        <ele>6</ele>
        <time>2022-06-08T17:35:44Z</time>
      </trkpt>
      <trkpt lat="49.18479" lon="-0.33668">
        <ele>2</ele>
        <time>2022-06-08T17:36:11Z</time>
      </trkpt>
      <trkpt lat="49.18506" lon="-0.33484">
        <ele>7</ele>
        <time>2022-06-08T17:36:33Z</time>
      </trkpt>
      <trkpt lat="49.18546" lon="-0.33341">
        <ele>7</ele>
        <time>2022-06-08T17:36:51Z</time>
      </trkpt>
      <trkpt lat="49.18588" lon="-0.3319">
        <ele>5</ele>
        <time>2022-06-08T17:37:10Z</time>
      </trkpt>
      <trkpt lat="49.18648" lon="-0.33068">
        <ele>7</ele>
        <time>2022-06-08T17:37:27Z</time>
      </trkpt>
      <trkpt lat="49.18715" lon="-0.32929">
        <ele>7</ele>
        <time>2022-06-08T17:37:48Z</time>
      </trkpt>
      <trkpt lat="49.18792" lon="-0.32791">
        <ele>2</ele>
        <time>2022-06-08T17:38:09Z</time>
      </trkpt>
      <trkpt lat="49.18891" lon="-0.32669">
        <ele>6</ele>
        <time>2022-06-08T17:38:31Z</time>
      </trkpt>
      <trkpt lat="49.19001" lon="-0.32551">
        <ele>9</ele>
        <time>2022-06-08T17:38:55Z</time>
      </trkpt>
      <trkpt lat="49.19127" lon="-0.32459">
        <ele>5</ele>
        <time>2022-06-08T17:39:20Z</time>
      </trkpt>
      <trkpt lat="49.19254" lon="-0.32358">
        <ele>3</ele>
        <time>2022-06-08T17:39:45Z</time>
      </trkpt>
      <trkpt lat="49.194" lon="-0.32283">
        <ele>5</ele>
        <time>2022-06-08T17:40:13Z</time>
      </trkpt>
      <trkpt lat="49.19545" lon="-0.32203">
        <ele>4</ele>
        <time>2022-06-08T17:40:40Z</time>
      </trkpt>
      <trkpt lat="49.19686" lon="-0.32115">
        <ele>3</ele>
        <time>2022-06-08T17:41:07Z</time>
      </trkpt>
      <trkpt lat="49.19827" lon="-0.32031">
        <ele>8</ele>
        <time>2022-06-08T17:41:34Z</time>
      </trkpt>
      <trkpt lat="49.19965" lon="-0.31938">
        <ele>7</ele>
        <time>2022-06-08T17:42:01Z</time>
      </trkpt>
      <trkpt lat="49.20108" lon="-0.31855">
        <ele>7</ele>
        <time>2022-06-08T17:42:28Z</time>
      </trkpt>
      <trkpt lat="49.20251" lon="-0.31771">
        <ele>8</ele>
        <time>2022-06-08T17:42:56Z</time>
      </trkpt>
      <trkpt lat="49.20394" lon="-0.31687">
        <ele>5</ele>
        <time>2022-06-08T17:43:23Z</time>
      </trkpt>
      <trkpt lat="49.20528" lon="-0.31598">
        <ele>4</ele>
        <time>2022-06-08T17:43:49Z</time>
      </trkpt>
      <trkpt lat="49.20619" lon="-0.31562">
        <ele>4</ele>
        <time>2022-06-08T17:44:06Z</time>
      </trkpt>
      <trkpt lat="49.20638" lon="-0.3159">
        <ele>3</ele>
        <time>2022-06-08T17:44:10Z</time>
      </trkpt>
      <trkpt lat="49.20695" lon="-0.31565">
        <ele>2</ele>
        <time>2022-06-08T17:44:21Z</time>
      </trkpt>
      <trkpt lat="49.20681" lon="-0.31519">
        <ele>3</ele>
        <time>2022-06-08T17:44:27Z</time>
      </trkpt>
      <trkpt lat="49.20814" lon="-0.3143">
        <ele>2</ele>
        <time>2022-06-08T17:44:53Z</time>
      </trkpt>
      <trkpt lat="49.20943" lon="-0.31345">
        <ele>-2</ele>
        <time>2022-06-08T17:45:18Z</time>
      </trkpt>
      <trkpt lat="49.21073" lon="-0.31271">
        <ele>-1</ele>
        <time>2022-06-08T17:45:42Z</time>
      </trkpt>
      <trkpt lat="49.21201" lon="-0.312">
        <ele>4</ele>
        <time>2022-06-08T17:46:06Z</time>
      </trkpt>
      <trkpt lat="49.21329" lon="-0.3112">
        <ele>4</ele>
        <time>2022-06-08T17:46:31Z</time>
      </trkpt>
      <trkpt lat="49.21463" lon="-0.31041">
        <ele>9</ele>
        <time>2022-06-08T17:46:57Z</time>
      </trkpt>
      <trkpt lat="49.21596" lon="-0.30959">
        <ele>7</ele>
        <time>2022-06-08T17:47:22Z</time>
      </trkpt>
      <trkpt lat="49.21728" lon="-0.30876">
        <ele>5</ele>
        <time>2022-06-08T17:47:47Z</time>
      </trkpt>
      <trkpt lat="49.21861" lon="-0.30797">
        <ele>5</ele>
        <time>2022-06-08T17:48:13Z</time>
      </trkpt>
      <trkpt lat="49.21994" lon="-0.30715">
        <ele>4</ele>
        <time>2022-06-08T17:48:38Z</time>
      </trkpt>
      <trkpt lat="49.22121" lon="-0.30619">
        <ele>3</ele>
        <time>2022-06-08T17:49:04Z</time>
      </trkpt>
      <trkpt lat="49.22198" lon="-0.30532">
        <ele>4.4</ele>
        <time>2022-06-08T17:49:21Z</time>
      </trkpt>
      <trkpt lat="49.22267" lon="-0.30414">
        <ele>1</ele>
        <time>2022-06-08T17:49:39Z</time>
      </trkpt>
      <trkpt lat="49.22338" lon="-0.30299">
        <ele>3</ele>
        <time>2022-06-08T17:49:57Z</time>
      </trkpt>
      <trkpt lat="49.22409" lon="-0.30155">
        <ele>3</ele>
        <time>2022-06-08T17:50:18Z</time>
      </trkpt>
      <trkpt lat="49.22477" lon="-0.30029">
        <ele>4</ele>
        <time>2022-06-08T17:50:37Z</time>
      </trkpt>
      <trkpt lat="49.22545" lon="-0.29902">
        <ele>4</ele>
        <time>2022-06-08T17:50:56Z</time>
      </trkpt>
      <trkpt lat="49.22613" lon="-0.29772">
        <ele>1</ele>
        <time>2022-06-08T17:51:16Z</time>
      </trkpt>
      <trkpt lat="49.22681" lon="-0.29635">
        <ele>2</ele>
        <time>2022-06-08T17:51:36Z</time>
      </trkpt>
      <trkpt lat="49.22749" lon="-0.29497">
        <ele>1</ele>
        <time>2022-06-08T17:51:56Z</time>
      </trkpt>
      <trkpt lat="49.22818" lon="-0.29365">
        <ele>4</ele>
        <time>2022-06-08T17:52:16Z</time>
      </trkpt>
      <trkpt lat="49.22886" lon="-0.29234">
        <ele>5</ele>
        <time>2022-06-08T17:52:35Z</time>
      </trkpt>
      <trkpt lat="49.22955" lon="-0.29102">
        <ele>7</ele>
        <time>2022-06-08T17:52:55Z</time>
      </trkpt>
      <trkpt lat="49.23024" lon="-0.2897">
        <ele>6</ele>
        <time>2022-06-08T17:53:14Z</time>
      </trkpt>
      <trkpt lat="49.23092" lon="-0.28838">
        <ele>4</ele>
        <time>2022-06-08T17:53:34Z</time>
      </trkpt>
      <trkpt lat="49.2316" lon="-0.28694">
        <ele>5</ele>
        <time>2022-06-08T17:53:54Z</time>
      </trkpt>
      <trkpt lat="49.23228" lon="-0.2855">
        <ele>4</ele>
        <time>2022-06-08T17:54:15Z</time>
      </trkpt>
      <trkpt lat="49.23231" lon="-0.2856">
        <ele>4</ele>
        <time>2022-06-08T17:54:16Z</time>
      </trkpt>
      <trkpt lat="49.23299" lon="-0.28441">
        <ele>7</ele>
        <time>2022-06-08T17:54:35Z</time>
      </trkpt>
      <trkpt lat="49.23373" lon="-0.28313">
        <ele>10</ele>
        <time>2022-06-08T17:54:55Z</time>
      </trkpt>
      <trkpt lat="49.23452" lon="-0.28196">
        <ele>11</ele>
        <time>2022-06-08T17:55:14Z</time>
      </trkpt>
      <trkpt lat="49.23537" lon="-0.28093">
        <ele>9</ele>
        <time>2022-06-08T17:55:33Z</time>
      </trkpt>
      <trkpt lat="49.23633" lon="-0.27994">
        <ele>5</ele>
        <time>2022-06-08T17:55:54Z</time>
      </trkpt>
      <trkpt lat="49.23734" lon="-0.27895">
        <ele>8</ele>
        <time>2022-06-08T17:56:15Z</time>
      </trkpt>
      <trkpt lat="49.23854" lon="-0.27806">
        <ele>7</ele>
        <time>2022-06-08T17:56:39Z</time>
      </trkpt>
      <trkpt lat="49.23973" lon="-0.27714">
        <ele>6</ele>
        <time>2022-06-08T17:57:03Z</time>
      </trkpt>
      <trkpt lat="49.24093" lon="-0.27627">
        <ele>7</ele>
        <time>2022-06-08T17:57:26Z</time>
      </trkpt>
      <trkpt lat="49.24182" lon="-0.27548">
        <ele>5</ele>
        <time>2022-06-08T17:57:45Z</time>
      </trkpt>
      <trkpt lat="49.24245" lon="-0.27482">
        <ele>5</ele>
        <time>2022-06-08T17:57:58Z</time>
      </trkpt>
      <trkpt lat="49.24336" lon="-0.27445">
        <ele>3</ele>
        <time>2022-06-08T17:58:15Z</time>
      </trkpt>
      <trkpt lat="49.24432" lon="-0.27379">
        <ele>2</ele>
        <time>2022-06-08T17:58:34Z</time>
      </trkpt>
      <trkpt lat="49.2453" lon="-0.27306">
        <ele>3</ele>
        <time>2022-06-08T17:58:53Z</time>
      </trkpt>
      <trkpt lat="49.24629" lon="-0.27236">
        <ele>3</ele>
        <time>2022-06-08T17:59:13Z</time>
      </trkpt>
      <trkpt lat="49.24729" lon="-0.27169">
        <ele>4</ele>
        <time>2022-06-08T17:59:32Z</time>
      </trkpt>
      <trkpt lat="49.24826" lon="-0.27099">
        <ele>3</ele>
        <time>2022-06-08T17:59:51Z</time>
      </trkpt>
      <trkpt lat="49.24921" lon="-0.27022">
        <ele>2</ele>
        <time>2022-06-08T18:00:10Z</time>
      </trkpt>
      <trkpt lat="49.25018" lon="-0.26948">
        <ele>3</ele>
        <time>2022-06-08T18:00:29Z</time>
      </trkpt>
      <trkpt lat="49.25114" lon="-0.26874">
        <ele>4</ele>
        <time>2022-06-08T18:00:49Z</time>
      </trkpt>
      <trkpt lat="49.25216" lon="-0.268">
        <ele>6</ele>
        <time>2022-06-08T18:01:09Z</time>
      </trkpt>
      <trkpt lat="49.25321" lon="-0.26717">
        <ele>2</ele>
        <time>2022-06-08T18:01:30Z</time>
      </trkpt>
      <trkpt lat="49.25418" lon="-0.26646">
        <ele>5</ele>
        <time>2022-06-08T18:01:49Z</time>
      </trkpt>
      <trkpt lat="49.2552" lon="-0.26536">
        <ele>9</ele>
        <time>2022-06-08T18:02:11Z</time>
      </trkpt>
      <trkpt lat="49.25598" lon="-0.26403">
        <ele>10</ele>
        <time>2022-06-08T18:02:32Z</time>
      </trkpt>
      <trkpt lat="49.25664" lon="-0.26264">
        <ele>11</ele>
        <time>2022-06-08T18:02:52Z</time>
      </trkpt>
      <trkpt lat="49.25726" lon="-0.26128">
        <ele>11</ele>
        <time>2022-06-08T18:03:11Z</time>
      </trkpt>
      <trkpt lat="49.25771" lon="-0.25991">
        <ele>7</ele>
        <time>2022-06-08T18:03:29Z</time>
      </trkpt>
      <trkpt lat="49.25825" lon="-0.25868">
        <ele>6</ele>
        <time>2022-06-08T18:03:46Z</time>
      </trkpt>
      <trkpt lat="49.25916" lon="-0.25762">
        <ele>1</ele>
        <time>2022-06-08T18:04:06Z</time>
      </trkpt>
      <trkpt lat="49.26028" lon="-0.25655">
        <ele>4</ele>
        <time>2022-06-08T18:04:30Z</time>
      </trkpt>
      <trkpt lat="49.26138" lon="-0.25557">
        <ele>5</ele>
        <time>2022-06-08T18:04:53Z</time>
      </trkpt>
      <trkpt lat="49.26252" lon="-0.25486">
        <ele>3</ele>
        <time>2022-06-08T18:05:14Z</time>
      </trkpt>
      <trkpt lat="49.26369" lon="-0.2542">
        <ele>3</ele>
        <time>2022-06-08T18:05:37Z</time>
      </trkpt>
      <trkpt lat="49.26494" lon="-0.25376">
        <ele>6</ele>
        <time>2022-06-08T18:05:59Z</time>
      </trkpt>
      <trkpt lat="49.26619" lon="-0.25337">
        <ele>5</ele>
        <time>2022-06-08T18:06:22Z</time>
      </trkpt>
      <trkpt lat="49.26787" lon="-0.25292">
        <ele>5</ele>
        <time>2022-06-08T18:06:52Z</time>
      </trkpt>
      <trkpt lat="49.2706" lon="-0.25227">
        <ele>3</ele>
        <time>2022-06-08T18:07:42Z</time>
      </trkpt>
      <trkpt lat="49.27245" lon="-0.25201">
        <ele>4</ele>
        <time>2022-06-08T18:08:15Z</time>
      </trkpt>
      <trkpt lat="49.27453" lon="-0.25127">
        <ele>5</ele>
        <time>2022-06-08T18:08:53Z</time>
      </trkpt>
      <trkpt lat="49.27683" lon="-0.2507">
        <ele>5</ele>
        <time>2022-06-08T18:09:34Z</time>
      </trkpt>
      <trkpt lat="49.27878" lon="-0.25016">
        <ele>4</ele>
        <time>2022-06-08T18:10:09Z</time>
      </trkpt>
      <trkpt lat="49.28019" lon="-0.24972">
        <ele>4</ele>
        <time>2022-06-08T18:10:35Z</time>
      </trkpt>
      <trkpt lat="49.2809" lon="-0.2496">
        <ele>3</ele>
        <time>2022-06-08T18:10:48Z</time>
      </trkpt>
      <trkpt lat="49.28119" lon="-0.24974">
        <ele>4</ele>
        <time>2022-06-08T18:10:53Z</time>
      </trkpt>
      <trkpt lat="49.28228" lon="-0.24929">
        <ele>3</ele>
        <time>2022-06-08T18:11:13Z</time>
      </trkpt>
      <trkpt lat="49.28271" lon="-0.2503">
        <ele>7</ele>
        <time>2022-06-08T18:11:27Z</time>
      </trkpt>
      <trkpt lat="49.28281" lon="-0.25064">
        <ele>7</ele>
        <time>2022-06-08T18:11:31Z</time>
      </trkpt>
      <trkpt lat="49.28415" lon="-0.25043">
        <ele>6</ele>
        <time>2022-06-08T18:11:55Z</time>
      </trkpt>
      <trkpt lat="49.28529" lon="-0.25015">
        <ele>5</ele>
        <time>2022-06-08T18:12:16Z</time>
      </trkpt>
      <trkpt lat="49.28641" lon="-0.24975">
        <ele>4</ele>
        <time>2022-06-08T18:12:36Z</time>
      </trkpt>
      <trkpt lat="49.28702" lon="-0.24951">
        <ele>5</ele>
        <time>2022-06-08T18:12:48Z</time>
      </trkpt>
      <trkpt lat="49.28758" lon="-0.25042">
        <ele>5</ele>
        <time>2022-06-08T18:13:02Z</time>
      </trkpt>
      <trkpt lat="49.28811" lon="-0.25188">
        <ele>5</ele>
        <time>2022-06-08T18:13:22Z</time>
      </trkpt>
      <trkpt lat="49.28845" lon="-0.25357">
        <ele>5</ele>
        <time>2022-06-08T18:13:42Z</time>
      </trkpt>
      <trkpt lat="49.28843" lon="-0.25467">
        <ele>5</ele>
        <time>2022-06-08T18:13:55Z</time>
      </trkpt>
      <trkpt lat="49.28818" lon="-0.25605">
        <ele>6</ele>
        <time>2022-06-08T18:14:12Z</time>
      </trkpt>
      <trkpt lat="49.28833" lon="-0.25726">
        <ele>5</ele>
        <time>2022-06-08T18:14:26Z</time>
      </trkpt>
      <trkpt lat="49.28887" lon="-0.25973">
        <ele>7</ele>
        <time>2022-06-08T18:14:56Z</time>
      </trkpt>
      <trkpt lat="49.28908" lon="-0.26072">
        <ele>7</ele>
        <time>2022-06-08T18:15:08Z</time>
      </trkpt>
      <trkpt lat="49.28981" lon="-0.26131">
        <ele>5</ele>
        <time>2022-06-08T18:15:23Z</time>
      </trkpt>
      <trkpt lat="49.29014" lon="-0.26265">
        <ele>5</ele>
        <time>2022-06-08T18:15:39Z</time>
      </trkpt>
      <trkpt lat="49.29057" lon="-0.26477">
        <ele>4</ele>
        <time>2022-06-08T18:16:05Z</time>
      </trkpt>
      <trkpt lat="49.29093" lon="-0.26695">
        <ele>5</ele>
        <time>2022-06-08T18:16:31Z</time>
      </trkpt>
      <trkpt lat="49.29129" lon="-0.26912">
        <ele>3</ele>
        <time>2022-06-08T18:16:57Z</time>
      </trkpt>
      <trkpt lat="49.29163" lon="-0.27148">
        <ele>5.9</ele>
        <time>2022-06-08T18:17:25Z</time>
      </trkpt>
      <trkpt lat="49.29197" lon="-0.27383">
        <ele>3</ele>
        <time>2022-06-08T18:17:53Z</time>
      </trkpt>
      <trkpt lat="49.29225" lon="-0.27631">
        <ele>2</ele>
        <time>2022-06-08T18:18:22Z</time>
      </trkpt>
      <trkpt lat="49.29262" lon="-0.27869">
        <ele>4</ele>
        <time>2022-06-08T18:18:51Z</time>
      </trkpt>
      <trkpt lat="49.29296" lon="-0.28098">
        <ele>2</ele>
        <time>2022-06-08T18:19:18Z</time>
      </trkpt>
      <trkpt lat="49.29324" lon="-0.28277">
        <ele>2</ele>
        <time>2022-06-08T18:19:39Z</time>
      </trkpt>
      <trkpt lat="49.29376" lon="-0.28488">
        <ele>2</ele>
        <time>2022-06-08T18:20:06Z</time>
      </trkpt>
      <trkpt lat="49.29425" lon="-0.28709">
        <ele>2</ele>
        <time>2022-06-08T18:20:33Z</time>
      </trkpt>
      <trkpt lat="49.2939" lon="-0.28733">
        <ele>5</ele>
        <time>2022-06-08T18:20:40Z</time>
      </trkpt>
      <trkpt lat="49.29426" lon="-0.28875">
        <ele>5</ele>
        <time>2022-06-08T18:20:57Z</time>
      </trkpt>
      <trkpt lat="49.29341" lon="-0.28929">
        <ele>5</ele>
        <time>2022-06-08T18:21:14Z</time>
      </trkpt>
      <trkpt lat="49.29483" lon="-0.29409">
        <ele>6</ele>
        <time>2022-06-08T18:22:15Z</time>
      </trkpt>
      <trkpt lat="49.29627" lon="-0.29905">
        <ele>6</ele>
        <time>2022-06-08T18:23:18Z</time>
      </trkpt>
      <trkpt lat="49.29652" lon="-0.30135">
        <ele>3</ele>
        <time>2022-06-08T18:23:45Z</time>
      </trkpt>
      <trkpt lat="49.29776" lon="-0.30521">
        <ele>5</ele>
        <time>2022-06-08T18:24:35Z</time>
      </trkpt>
      <trkpt lat="49.29847" lon="-0.30947">
        <ele>6</ele>
        <time>2022-06-08T18:25:26Z</time>
      </trkpt>
      <trkpt lat="49.29925" lon="-0.31434">
        <ele>8</ele>
        <time>2022-06-08T18:26:24Z</time>
      </trkpt>
      <trkpt lat="49.30083" lon="-0.31683">
        <ele>6</ele>
        <time>2022-06-08T18:27:04Z</time>
      </trkpt>
      <trkpt lat="49.30313" lon="-0.32009">
        <ele>9</ele>
        <time>2022-06-08T18:28:00Z</time>
      </trkpt>
      <trkpt lat="49.30572" lon="-0.32399">
        <ele>7</ele>
        <time>2022-06-08T18:29:05Z</time>
      </trkpt>
      <trkpt lat="49.30755" lon="-0.32747">
        <ele>9</ele>
        <time>2022-06-08T18:29:56Z</time>
      </trkpt>
      <trkpt lat="49.30934" lon="-0.33133">
        <ele>10</ele>
        <time>2022-06-08T18:30:51Z</time>
      </trkpt>
      <trkpt lat="49.31108" lon="-0.33556">
        <ele>6</ele>
        <time>2022-06-08T18:31:49Z</time>
      </trkpt>
      <trkpt lat="49.31283" lon="-0.33978">
        <ele>9</ele>
        <time>2022-06-08T18:32:47Z</time>
      </trkpt>
      <trkpt lat="49.31398" lon="-0.34289">
        <ele>8</ele>
        <time>2022-06-08T18:33:29Z</time>
      </trkpt>
      <trkpt lat="49.30849" lon="-0.34906">
        <ele>13</ele>
        <time>2022-06-08T18:35:30Z</time>
      </trkpt>
      <trkpt lat="49.3111" lon="-0.35578">
        <ele>13</ele>
        <time>2022-06-08T18:37:01Z</time>
      </trkpt>
      <trkpt lat="49.31176" lon="-0.35834">
        <ele>14</ele>
        <time>2022-06-08T18:37:33Z</time>
      </trkpt>
      <trkpt lat="49.3127" lon="-0.3613">
        <ele>11</ele>
        <time>2022-06-08T18:38:11Z</time>
      </trkpt>
      <trkpt lat="49.31303" lon="-0.36357">
        <ele>7</ele>
        <time>2022-06-08T18:38:38Z</time>
      </trkpt>
      <trkpt lat="49.31183" lon="-0.36465">
        <ele>9</ele>
        <time>2022-06-08T18:39:03Z</time>
      </trkpt>
      <trkpt lat="49.30976" lon="-0.36657">
        <ele>11</ele>
        <time>2022-06-08T18:39:46Z</time>
      </trkpt>
      <trkpt lat="49.30699" lon="-0.36736">
        <ele>12</ele>
        <time>2022-06-08T18:40:36Z</time>
      </trkpt>
      <trkpt lat="49.30402" lon="-0.36769">
        <ele>17</ele>
        <time>2022-06-08T18:41:29Z</time>
      </trkpt>
      <trkpt lat="49.30113" lon="-0.36718">
        <ele>18</ele>
        <time>2022-06-08T18:42:20Z</time>
      </trkpt>
      <trkpt lat="49.29925" lon="-0.36855">
        <ele>18</ele>
        <time>2022-06-08T18:42:58Z</time>
      </trkpt>
      <trkpt lat="49.29734" lon="-0.37209">
        <ele>21</ele>
        <time>2022-06-08T18:43:51Z</time>
      </trkpt>
      <trkpt lat="49.29581" lon="-0.37562">
        <ele>22</ele>
        <time>2022-06-08T18:44:40Z</time>
      </trkpt>
      <trkpt lat="49.2939" lon="-0.37627">
        <ele>25</ele>
        <time>2022-06-08T18:45:15Z</time>
      </trkpt>
      <trkpt lat="49.29106" lon="-0.37721">
        <ele>30</ele>
        <time>2022-06-08T18:46:07Z</time>
      </trkpt>
      <trkpt lat="49.28818" lon="-0.37862">
        <ele>38</ele>
        <time>2022-06-08T18:47:00Z</time>
      </trkpt>
      <trkpt lat="49.28517" lon="-0.37977">
        <ele>48</ele>
        <time>2022-06-08T18:47:56Z</time>
      </trkpt>
      <trkpt lat="49.28216" lon="-0.381">
        <ele>52</ele>
        <time>2022-06-08T18:48:51Z</time>
      </trkpt>
      <trkpt lat="49.27903" lon="-0.37996">
        <ele>52</ele>
        <time>2022-06-08T18:49:48Z</time>
      </trkpt>
      <trkpt lat="49.27566" lon="-0.37887">
        <ele>47</ele>
        <time>2022-06-08T18:50:49Z</time>
      </trkpt>
      <trkpt lat="49.27547" lon="-0.37786">
        <ele>47</ele>
        <time>2022-06-08T18:51:01Z</time>
      </trkpt>
      <trkpt lat="49.27446" lon="-0.37822">
        <ele>45</ele>
        <time>2022-06-08T18:51:20Z</time>
      </trkpt>
      <trkpt lat="49.27182" lon="-0.37732">
        <ele>46</ele>
        <time>2022-06-08T18:52:08Z</time>
      </trkpt>
      <trkpt lat="49.26914" lon="-0.37689">
        <ele>48</ele>
        <time>2022-06-08T18:52:56Z</time>
      </trkpt>
      <trkpt lat="49.26645" lon="-0.3762">
        <ele>49</ele>
        <time>2022-06-08T18:53:44Z</time>
      </trkpt>
      <trkpt lat="49.26372" lon="-0.37559">
        <ele>51</ele>
        <time>2022-06-08T18:54:34Z</time>
      </trkpt>
      <trkpt lat="49.26099" lon="-0.37498">
        <ele>51</ele>
        <time>2022-06-08T18:55:23Z</time>
      </trkpt>
      <trkpt lat="49.25826" lon="-0.37411">
        <ele>48</ele>
        <time>2022-06-08T18:56:12Z</time>
      </trkpt>
      <trkpt lat="49.25553" lon="-0.37324">
        <ele>45</ele>
        <time>2022-06-08T18:57:02Z</time>
      </trkpt>
      <trkpt lat="49.25268" lon="-0.37252">
        <ele>48</ele>
        <time>2022-06-08T18:57:53Z</time>
      </trkpt>
      <trkpt lat="49.25102" lon="-0.37219">
        <ele>50</ele>
        <time>2022-06-08T18:58:23Z</time>
      </trkpt>
      <trkpt lat="49.24852" lon="-0.37368">
        <ele>50</ele>
        <time>2022-06-08T18:59:11Z</time>
      </trkpt>
      <trkpt lat="49.24811" lon="-0.37412">
        <ele>50</ele>
        <time>2022-06-08T18:59:20Z</time>
      </trkpt>
      <trkpt lat="49.24769" lon="-0.37486">
        <ele>49</ele>
        <time>2022-06-08T18:59:31Z</time>
      </trkpt>
      <trkpt lat="49.24762" lon="-0.3744">
        <ele>50</ele>
        <time>2022-06-08T18:59:37Z</time>
      </trkpt>
      <trkpt lat="49.24687" lon="-0.37359">
        <ele>49</ele>
        <time>2022-06-08T18:59:53Z</time>
      </trkpt>
      <trkpt lat="49.24597" lon="-0.37291">
        <ele>49</ele>
        <time>2022-06-08T19:00:11Z</time>
      </trkpt>
      <trkpt lat="49.24487" lon="-0.37238">
        <ele>48</ele>
        <time>2022-06-08T19:00:31Z</time>
      </trkpt>
      <trkpt lat="49.24359" lon="-0.37199">
        <ele>45</ele>
        <time>2022-06-08T19:00:54Z</time>
      </trkpt>
      <trkpt lat="49.24292" lon="-0.37244">
        <ele>45</ele>
        <time>2022-06-08T19:01:07Z</time>
      </trkpt>
      <trkpt lat="49.24203" lon="-0.37231">
        <ele>44</ele>
        <time>2022-06-08T19:01:23Z</time>
      </trkpt>
      <trkpt lat="49.24146" lon="-0.37199">
        <ele>44</ele>
        <time>2022-06-08T19:01:34Z</time>
      </trkpt>
      <trkpt lat="49.23896" lon="-0.37235">
        <ele>47</ele>
        <time>2022-06-08T19:02:19Z</time>
      </trkpt>
      <trkpt lat="49.23638" lon="-0.37255">
        <ele>49</ele>
        <time>2022-06-08T19:03:05Z</time>
      </trkpt>
      <trkpt lat="49.2338" lon="-0.37274">
        <ele>51</ele>
        <time>2022-06-08T19:03:51Z</time>
      </trkpt>
      <trkpt lat="49.23192" lon="-0.37213">
        <ele>52</ele>
        <time>2022-06-08T19:04:25Z</time>
      </trkpt>
      <trkpt lat="49.23005" lon="-0.3715">
        <ele>57</ele>
        <time>2022-06-08T19:04:59Z</time>
      </trkpt>
      <trkpt lat="49.22965" lon="-0.3717">
        <ele>57</ele>
        <time>2022-06-08T19:05:07Z</time>
      </trkpt>
      <trkpt lat="49.22922" lon="-0.37116">
        <ele>56</ele>
        <time>2022-06-08T19:05:16Z</time>
      </trkpt>
      <trkpt lat="49.22762" lon="-0.37047">
        <ele>57</ele>
        <time>2022-06-08T19:05:46Z</time>
      </trkpt>
      <trkpt lat="49.2259" lon="-0.36977">
        <ele>55</ele>
        <time>2022-06-08T19:06:18Z</time>
      </trkpt>
      <trkpt lat="49.22418" lon="-0.36906">
        <ele>51</ele>
        <time>2022-06-08T19:06:49Z</time>
      </trkpt>
      <trkpt lat="49.22246" lon="-0.36838">
        <ele>50</ele>
        <time>2022-06-08T19:07:21Z</time>
      </trkpt>
      <trkpt lat="49.22074" lon="-0.36769">
        <ele>52</ele>
        <time>2022-06-08T19:07:53Z</time>
      </trkpt>
      <trkpt lat="49.21902" lon="-0.36701">
        <ele>53</ele>
        <time>2022-06-08T19:08:24Z</time>
      </trkpt>
      <trkpt lat="49.21839" lon="-0.36792">
        <ele>53</ele>
        <time>2022-06-08T19:08:40Z</time>
      </trkpt>
      <trkpt lat="49.21781" lon="-0.3685">
        <ele>54</ele>
        <time>2022-06-08T19:08:52Z</time>
      </trkpt>
      <trkpt lat="49.21687" lon="-0.36923">
        <ele>57</ele>
        <time>2022-06-08T19:09:11Z</time>
      </trkpt>
      <trkpt lat="49.21627" lon="-0.37007">
        <ele>57</ele>
        <time>2022-06-08T19:09:25Z</time>
      </trkpt>
      <trkpt lat="49.21575" lon="-0.37143">
        <ele>56</ele>
        <time>2022-06-08T19:09:44Z</time>
      </trkpt>
      <trkpt lat="49.21536" lon="-0.37251">
        <ele>58</ele>
        <time>2022-06-08T19:09:58Z</time>
      </trkpt>
      <trkpt lat="49.21444" lon="-0.37416">
        <ele>57</ele>
        <time>2022-06-08T19:10:23Z</time>
      </trkpt>
      <trkpt lat="49.21341" lon="-0.37608">
        <ele>59</ele>
        <time>2022-06-08T19:10:52Z</time>
      </trkpt>
      <trkpt lat="49.21306" lon="-0.37689">
        <ele>60</ele>
        <time>2022-06-08T19:11:03Z</time>
      </trkpt>
      <trkpt lat="49.21275" lon="-0.37721">
        <ele>60</ele>
        <time>2022-06-08T19:11:10Z</time>
      </trkpt>
      <trkpt lat="49.21215" lon="-0.37782">
        <ele>61</ele>
        <time>2022-06-08T19:11:23Z</time>
      </trkpt>
      <trkpt lat="49.21175" lon="-0.37875">
        <ele>63</ele>
        <time>2022-06-08T19:11:36Z</time>
      </trkpt>
      <trkpt lat="49.21064" lon="-0.37807">
        <ele>65</ele>
        <time>2022-06-08T19:11:57Z</time>
      </trkpt>
      <trkpt lat="49.20934" lon="-0.37729">
        <ele>63</ele>
        <time>2022-06-08T19:12:22Z</time>
      </trkpt>
      <trkpt lat="49.20884" lon="-0.37704">
        <ele>62</ele>
        <time>2022-06-08T19:12:31Z</time>
      </trkpt>
      <trkpt lat="49.20765" lon="-0.37949">
        <ele>59</ele>
        <time>2022-06-08T19:13:07Z</time>
      </trkpt>
      <trkpt lat="49.20639" lon="-0.3817">
        <ele>64</ele>
        <time>2022-06-08T19:13:41Z</time>
      </trkpt>
      <trkpt lat="49.20514" lon="-0.38391">
        <ele>66</ele>
        <time>2022-06-08T19:14:15Z</time>
      </trkpt>
      <trkpt lat="49.20418" lon="-0.38627">
        <ele>64</ele>
        <time>2022-06-08T19:14:47Z</time>
      </trkpt>
      <trkpt lat="49.20362" lon="-0.3888">
        <ele>66</ele>
        <time>2022-06-08T19:15:18Z</time>
      </trkpt>
      <trkpt lat="49.20319" lon="-0.39088">
        <ele>68</ele>
        <time>2022-06-08T19:15:43Z</time>
      </trkpt>
      <trkpt lat="49.20332" lon="-0.39166">
        <ele>68</ele>
        <time>2022-06-08T19:15:53Z</time>
      </trkpt>
      <trkpt lat="49.20293" lon="-0.39203">
        <ele>67</ele>
        <time>2022-06-08T19:16:01Z</time>
      </trkpt>
      <trkpt lat="49.20258" lon="-0.39342">
        <ele>66</ele>
        <time>2022-06-08T19:16:18Z</time>
      </trkpt>
      <trkpt lat="49.20182" lon="-0.39467">
        <ele>64</ele>
        <time>2022-06-08T19:16:38Z</time>
      </trkpt>
      <trkpt lat="49.20106" lon="-0.39556">
        <ele>64</ele>
        <time>2022-06-08T19:16:55Z</time>
      </trkpt>
      <trkpt lat="49.20124" lon="-0.39678">
        <ele>65</ele>
        <time>2022-06-08T19:17:10Z</time>
      </trkpt>
      <trkpt lat="49.20156" lon="-0.39864">
        <ele>65</ele>
        <time>2022-06-08T19:17:32Z</time>
      </trkpt>
      <trkpt lat="49.20157" lon="-0.40063">
        <ele>65</ele>
        <time>2022-06-08T19:17:55Z</time>
      </trkpt>
      <trkpt lat="49.20166" lon="-0.4028">
        <ele>66</ele>
        <time>2022-06-08T19:18:20Z</time>
      </trkpt>
      <trkpt lat="49.20201" lon="-0.40506">
        <ele>66</ele>
        <time>2022-06-08T19:18:47Z</time>
      </trkpt>
      <trkpt lat="49.20151" lon="-0.40555">
        <ele>67</ele>
        <time>2022-06-08T19:18:58Z</time>
      </trkpt>
      <trkpt lat="49.20112" lon="-0.40659">
        <ele>65</ele>
        <time>2022-06-08T19:19:12Z</time>
      </trkpt>
      <trkpt lat="49.20049" lon="-0.4075">
        <ele>66</ele>
        <time>2022-06-08T19:19:27Z</time>
      </trkpt>
      <trkpt lat="49.19995" lon="-0.40808">
        <ele>68</ele>
        <time>2022-06-08T19:19:39Z</time>
      </trkpt>
      <trkpt lat="49.19919" lon="-0.40855">
        <ele>66</ele>
        <time>2022-06-08T19:19:54Z</time>
      </trkpt>
      <trkpt lat="49.19902" lon="-0.40909">
        <ele>66</ele>
        <time>2022-06-08T19:20:01Z</time>
      </trkpt>
    </trkseg>
  </trk>
</gpx>